sensor_id;sensor_type;location;lat;lon;timestamp;P1;durP1;ratioP1;P2;durP2;ratioP2
48189;SDS011;33980;47.436;18.926;2022-09-01T00:01:53;1.50;;;1.10;;
48189;SDS011;33980;47.436;18.926;2022-09-01T00:04:23;3.10;;;1.40;;
48189;SDS011;33980;47.436;18.926;2022-09-01T00:09:26;2.50;;;1.40;;
48189;SDS011;33980;47.436;18.926;2022-09-01T00:11:54;2.12;;;1.23;;
48189;SDS011;33980;47.436;18.926;2022-09-01T00:14:25;2.42;;;1.50;;
48189;SDS011;33980;47.436;18.926;2022-09-01T00:16:57;1.90;;;1.30;;
48189;SDS011;33980;47.436;18.926;2022-09-01T00:19:26;2.83;;;1.37;;
48189;SDS011;33980;47.436;18.926;2022-09-01T00:21:57;1.95;;;1.27;;
48189;SDS011;33980;47.436;18.926;2022-09-01T00:24:26;3.10;;;1.50;;
48189;SDS011;33980;47.436;18.926;2022-09-01T00:26:55;3.30;;;1.58;;
48189;SDS011;33980;47.436;18.926;2022-09-01T00:29:24;2.08;;;1.15;;
48189;SDS011;33980;47.436;18.926;2022-09-01T00:31:53;2.53;;;1.45;;
48189;SDS011;33980;47.436;18.926;2022-09-01T00:34:22;4.93;;;1.27;;
48189;SDS011;33980;47.436;18.926;2022-09-01T00:36:53;1.67;;;1.00;;
48189;SDS011;33980;47.436;18.926;2022-09-01T00:41:51;1.80;;;1.20;;
48189;SDS011;33980;47.436;18.926;2022-09-01T00:44:20;2.95;;;1.50;;
48189;SDS011;33980;47.436;18.926;2022-09-01T00:46:56;2.20;;;1.42;;
48189;SDS011;33980;47.436;18.926;2022-09-01T00:49:27;2.92;;;1.80;;
48189;SDS011;33980;47.436;18.926;2022-09-01T00:52:04;3.37;;;1.60;;
48189;SDS011;33980;47.436;18.926;2022-09-01T00:54:36;3.70;;;1.75;;
48189;SDS011;33980;47.436;18.926;2022-09-01T00:57:07;2.92;;;1.65;;
48189;SDS011;33980;47.436;18.926;2022-09-01T00:59:36;0.90;;;0.80;;
48189;SDS011;33980;47.436;18.926;2022-09-01T01:02:06;2.25;;;1.35;;
48189;SDS011;33980;47.436;18.926;2022-09-01T01:04:37;2.25;;;1.42;;
48189;SDS011;33980;47.436;18.926;2022-09-01T01:07:09;1.27;;;1.12;;
48189;SDS011;33980;47.436;18.926;2022-09-01T01:09:41;1.90;;;1.37;;
48189;SDS011;33980;47.436;18.926;2022-09-01T01:12:12;1.50;;;1.12;;
48189;SDS011;33980;47.436;18.926;2022-09-01T01:14:45;1.75;;;1.33;;
48189;SDS011;33980;47.436;18.926;2022-09-01T01:17:17;1.77;;;1.23;;
48189;SDS011;33980;47.436;18.926;2022-09-01T01:19:47;2.12;;;1.10;;
48189;SDS011;33980;47.436;18.926;2022-09-01T01:22:38;2.33;;;1.40;;
48189;SDS011;33980;47.436;18.926;2022-09-01T01:25:29;1.48;;;1.10;;
48189;SDS011;33980;47.436;18.926;2022-09-01T01:28:05;2.22;;;1.12;;
48189;SDS011;33980;47.436;18.926;2022-09-01T01:30:37;2.20;;;1.17;;
48189;SDS011;33980;47.436;18.926;2022-09-01T01:33:06;2.42;;;1.10;;
48189;SDS011;33980;47.436;18.926;2022-09-01T01:35:38;1.52;;;1.00;;
48189;SDS011;33980;47.436;18.926;2022-09-01T01:38:08;2.03;;;1.25;;
48189;SDS011;33980;47.436;18.926;2022-09-01T01:40:38;2.60;;;1.33;;
48189;SDS011;33980;47.436;18.926;2022-09-01T01:43:07;2.12;;;1.08;;
48189;SDS011;33980;47.436;18.926;2022-09-01T01:45:38;1.50;;;1.05;;
48189;SDS011;33980;47.436;18.926;2022-09-01T01:48:07;1.17;;;1.08;;
48189;SDS011;33980;47.436;18.926;2022-09-01T01:50:38;1.77;;;1.02;;
48189;SDS011;33980;47.436;18.926;2022-09-01T01:53:15;3.62;;;1.67;;
48189;SDS011;33980;47.436;18.926;2022-09-01T01:55:48;3.83;;;1.48;;
48189;SDS011;33980;47.436;18.926;2022-09-01T01:58:18;1.95;;;1.02;;
48189;SDS011;33980;47.436;18.926;2022-09-01T02:00:48;1.77;;;1.10;;
48189;SDS011;33980;47.436;18.926;2022-09-01T02:03:19;3.75;;;1.40;;
48189;SDS011;33980;47.436;18.926;2022-09-01T02:05:52;2.87;;;1.40;;
48189;SDS011;33980;47.436;18.926;2022-09-01T02:08:22;1.43;;;1.13;;
48189;SDS011;33980;47.436;18.926;2022-09-01T02:10:53;1.45;;;1.10;;
48189;SDS011;33980;47.436;18.926;2022-09-01T02:13:24;2.65;;;1.27;;
48189;SDS011;33980;47.436;18.926;2022-09-01T02:15:58;2.05;;;1.10;;
48189;SDS011;33980;47.436;18.926;2022-09-01T02:18:30;3.08;;;1.40;;
48189;SDS011;33980;47.436;18.926;2022-09-01T02:21:03;3.20;;;0.93;;
48189;SDS011;33980;47.436;18.926;2022-09-01T02:23:42;2.30;;;1.10;;
48189;SDS011;33980;47.436;18.926;2022-09-01T02:26:13;2.33;;;1.33;;
48189;SDS011;33980;47.436;18.926;2022-09-01T02:28:45;1.42;;;1.00;;
48189;SDS011;33980;47.436;18.926;2022-09-01T02:31:26;3.58;;;1.15;;
48189;SDS011;33980;47.436;18.926;2022-09-01T02:33:55;2.10;;;1.10;;
48189;SDS011;33980;47.436;18.926;2022-09-01T02:36:23;2.20;;;1.65;;
48189;SDS011;33980;47.436;18.926;2022-09-01T02:38:53;1.75;;;1.17;;
48189;SDS011;33980;47.436;18.926;2022-09-01T02:41:24;2.67;;;0.90;;
48189;SDS011;33980;47.436;18.926;2022-09-01T02:44:01;1.85;;;0.90;;
48189;SDS011;33980;47.436;18.926;2022-09-01T02:46:31;2.22;;;1.12;;
48189;SDS011;33980;47.436;18.926;2022-09-01T02:49:00;1.20;;;0.90;;
48189;SDS011;33980;47.436;18.926;2022-09-01T02:51:30;1.30;;;1.08;;
48189;SDS011;33980;47.436;18.926;2022-09-01T02:54:00;1.00;;;0.80;;
48189;SDS011;33980;47.436;18.926;2022-09-01T02:59:02;0.77;;;0.75;;
48189;SDS011;33980;47.436;18.926;2022-09-01T03:01:31;0.88;;;0.82;;
48189;SDS011;33980;47.436;18.926;2022-09-01T03:04:01;1.30;;;1.05;;
48189;SDS011;33980;47.436;18.926;2022-09-01T03:06:34;3.05;;;1.25;;
48189;SDS011;33980;47.436;18.926;2022-09-01T03:09:05;2.00;;;1.20;;
48189;SDS011;33980;47.436;18.926;2022-09-01T03:11:39;1.27;;;0.85;;
48189;SDS011;33980;47.436;18.926;2022-09-01T03:14:09;2.20;;;1.20;;
48189;SDS011;33980;47.436;18.926;2022-09-01T03:16:39;0.65;;;0.65;;
48189;SDS011;33980;47.436;18.926;2022-09-01T03:19:08;0.75;;;0.75;;
48189;SDS011;33980;47.436;18.926;2022-09-01T03:21:39;1.50;;;1.00;;
48189;SDS011;33980;47.436;18.926;2022-09-01T03:24:09;1.98;;;1.02;;
48189;SDS011;33980;47.436;18.926;2022-09-01T03:26:43;1.40;;;1.10;;
48189;SDS011;33980;47.436;18.926;2022-09-01T03:29:16;1.50;;;1.27;;
48189;SDS011;33980;47.436;18.926;2022-09-01T03:31:45;1.58;;;0.88;;
48189;SDS011;33980;47.436;18.926;2022-09-01T03:34:14;4.05;;;1.10;;
48189;SDS011;33980;47.436;18.926;2022-09-01T03:36:45;2.95;;;1.08;;
48189;SDS011;33980;47.436;18.926;2022-09-01T03:39:17;2.67;;;0.82;;
48189;SDS011;33980;47.436;18.926;2022-09-01T03:41:47;1.67;;;1.08;;
48189;SDS011;33980;47.436;18.926;2022-09-01T03:44:16;1.53;;;1.10;;
48189;SDS011;33980;47.436;18.926;2022-09-01T03:46:45;1.58;;;1.10;;
48189;SDS011;33980;47.436;18.926;2022-09-01T03:49:14;3.20;;;2.45;;
48189;SDS011;33980;47.436;18.926;2022-09-01T03:51:53;2.78;;;1.25;;
48189;SDS011;33980;47.436;18.926;2022-09-01T03:54:23;1.90;;;0.90;;
48189;SDS011;33980;47.436;18.926;2022-09-01T03:56:59;2.60;;;1.10;;
48189;SDS011;33980;47.436;18.926;2022-09-01T03:59:32;2.92;;;1.92;;
48189;SDS011;33980;47.436;18.926;2022-09-01T04:02:01;3.05;;;1.40;;
48189;SDS011;33980;47.436;18.926;2022-09-01T04:04:30;2.17;;;1.10;;
48189;SDS011;33980;47.436;18.926;2022-09-01T04:06:59;1.75;;;1.15;;
48189;SDS011;33980;47.436;18.926;2022-09-01T04:09:28;1.40;;;1.08;;
48189;SDS011;33980;47.436;18.926;2022-09-01T04:11:57;6.75;;;1.23;;
48189;SDS011;33980;47.436;18.926;2022-09-01T04:14:27;1.80;;;1.00;;
48189;SDS011;33980;47.436;18.926;2022-09-01T04:16:56;2.33;;;1.58;;
48189;SDS011;33980;47.436;18.926;2022-09-01T04:19:43;1.30;;;0.95;;
48189;SDS011;33980;47.436;18.926;2022-09-01T04:22:12;2.55;;;1.62;;
48189;SDS011;33980;47.436;18.926;2022-09-01T04:24:42;3.03;;;1.33;;
48189;SDS011;33980;47.436;18.926;2022-09-01T04:27:13;1.62;;;1.20;;
48189;SDS011;33980;47.436;18.926;2022-09-01T04:29:45;2.70;;;1.70;;
48189;SDS011;33980;47.436;18.926;2022-09-01T04:32:15;1.33;;;1.12;;
48189;SDS011;33980;47.436;18.926;2022-09-01T04:34:47;1.15;;;1.00;;
48189;SDS011;33980;47.436;18.926;2022-09-01T04:37:18;1.60;;;1.10;;
48189;SDS011;33980;47.436;18.926;2022-09-01T04:39:49;1.65;;;1.00;;
48189;SDS011;33980;47.436;18.926;2022-09-01T04:42:23;1.95;;;1.37;;
48189;SDS011;33980;47.436;18.926;2022-09-01T04:44:56;1.35;;;1.17;;
48189;SDS011;33980;47.436;18.926;2022-09-01T04:47:29;2.47;;;1.48;;
48189;SDS011;33980;47.436;18.926;2022-09-01T04:50:03;1.85;;;1.00;;
48189;SDS011;33980;47.436;18.926;2022-09-01T04:52:42;1.95;;;1.05;;
48189;SDS011;33980;47.436;18.926;2022-09-01T04:57:45;2.40;;;1.33;;
48189;SDS011;33980;47.436;18.926;2022-09-01T05:00:18;2.90;;;1.62;;
48189;SDS011;33980;47.436;18.926;2022-09-01T05:02:51;4.62;;;1.27;;
48189;SDS011;33980;47.436;18.926;2022-09-01T05:05:22;1.85;;;1.37;;
48189;SDS011;33980;47.436;18.926;2022-09-01T05:07:52;1.70;;;1.10;;
48189;SDS011;33980;47.436;18.926;2022-09-01T05:10:22;2.30;;;1.23;;
48189;SDS011;33980;47.436;18.926;2022-09-01T05:12:56;3.25;;;1.40;;
48189;SDS011;33980;47.436;18.926;2022-09-01T05:15:26;1.50;;;1.10;;
48189;SDS011;33980;47.436;18.926;2022-09-01T05:17:57;1.20;;;0.90;;
48189;SDS011;33980;47.436;18.926;2022-09-01T05:20:28;2.25;;;1.20;;
48189;SDS011;33980;47.436;18.926;2022-09-01T05:22:58;2.55;;;1.48;;
48189;SDS011;33980;47.436;18.926;2022-09-01T05:25:27;2.70;;;1.20;;
48189;SDS011;33980;47.436;18.926;2022-09-01T05:27:56;2.58;;;1.37;;
48189;SDS011;33980;47.436;18.926;2022-09-01T05:30:27;1.45;;;0.98;;
48189;SDS011;33980;47.436;18.926;2022-09-01T05:32:57;2.37;;;1.30;;
48189;SDS011;33980;47.436;18.926;2022-09-01T05:35:28;2.42;;;1.50;;
48189;SDS011;33980;47.436;18.926;2022-09-01T05:37:59;2.22;;;1.30;;
48189;SDS011;33980;47.436;18.926;2022-09-01T05:40:29;1.75;;;1.40;;
48189;SDS011;33980;47.436;18.926;2022-09-01T05:42:58;1.85;;;1.23;;
48189;SDS011;33980;47.436;18.926;2022-09-01T05:45:30;3.58;;;1.17;;
48189;SDS011;33980;47.436;18.926;2022-09-01T05:48:19;7.07;;;1.47;;
48189;SDS011;33980;47.436;18.926;2022-09-01T05:50:50;1.67;;;1.15;;
48189;SDS011;33980;47.436;18.926;2022-09-01T05:53:24;1.98;;;1.12;;
48189;SDS011;33980;47.436;18.926;2022-09-01T05:55:53;2.03;;;1.33;;
48189;SDS011;33980;47.436;18.926;2022-09-01T05:58:23;2.78;;;1.33;;
48189;SDS011;33980;47.436;18.926;2022-09-01T06:01:18;2.10;;;1.25;;
48189;SDS011;33980;47.436;18.926;2022-09-01T06:03:48;1.27;;;0.90;;
48189;SDS011;33980;47.436;18.926;2022-09-01T06:06:21;2.50;;;1.33;;
48189;SDS011;33980;47.436;18.926;2022-09-01T06:08:53;3.72;;;1.17;;
48189;SDS011;33980;47.436;18.926;2022-09-01T06:11:25;2.40;;;1.42;;
48189;SDS011;33980;47.436;18.926;2022-09-01T06:13:59;1.58;;;1.20;;
48189;SDS011;33980;47.436;18.926;2022-09-01T06:16:30;3.15;;;1.35;;
48189;SDS011;33980;47.436;18.926;2022-09-01T06:19:00;2.72;;;1.55;;
48189;SDS011;33980;47.436;18.926;2022-09-01T06:21:29;1.42;;;1.10;;
48189;SDS011;33980;47.436;18.926;2022-09-01T06:23:58;1.27;;;1.00;;
48189;SDS011;33980;47.436;18.926;2022-09-01T06:26:28;2.12;;;1.12;;
48189;SDS011;33980;47.436;18.926;2022-09-01T06:28:59;1.75;;;1.10;;
48189;SDS011;33980;47.436;18.926;2022-09-01T06:31:33;1.10;;;1.00;;
48189;SDS011;33980;47.436;18.926;2022-09-01T06:34:06;2.25;;;1.37;;
48189;SDS011;33980;47.436;18.926;2022-09-01T06:36:36;1.30;;;1.15;;
48189;SDS011;33980;47.436;18.926;2022-09-01T06:39:06;3.03;;;1.67;;
48189;SDS011;33980;47.436;18.926;2022-09-01T06:41:35;2.10;;;1.10;;
48189;SDS011;33980;47.436;18.926;2022-09-01T06:44:06;1.50;;;1.13;;
48189;SDS011;33980;47.436;18.926;2022-09-01T06:46:43;1.70;;;1.00;;
48189;SDS011;33980;47.436;18.926;2022-09-01T06:49:12;1.62;;;1.08;;
48189;SDS011;33980;47.436;18.926;2022-09-01T06:51:41;0.88;;;0.88;;
48189;SDS011;33980;47.436;18.926;2022-09-01T06:54:10;1.02;;;0.90;;
48189;SDS011;33980;47.436;18.926;2022-09-01T06:56:41;0.95;;;0.88;;
48189;SDS011;33980;47.436;18.926;2022-09-01T06:59:30;0.90;;;0.80;;
48189;SDS011;33980;47.436;18.926;2022-09-01T07:02:20;3.03;;;1.50;;
48189;SDS011;33980;47.436;18.926;2022-09-01T07:04:54;6.68;;;1.10;;
48189;SDS011;33980;47.436;18.926;2022-09-01T07:07:23;1.40;;;0.98;;
48189;SDS011;33980;47.436;18.926;2022-09-01T07:10:26;1.33;;;0.90;;
48189;SDS011;33980;47.436;18.926;2022-09-01T07:12:57;1.45;;;0.93;;
48189;SDS011;33980;47.436;18.926;2022-09-01T07:15:36;3.03;;;1.10;;
48189;SDS011;33980;47.436;18.926;2022-09-01T07:18:28;1.12;;;0.80;;
48189;SDS011;33980;47.436;18.926;2022-09-01T07:20:58;1.35;;;1.08;;
48189;SDS011;33980;47.436;18.926;2022-09-01T07:23:49;1.45;;;0.90;;
48189;SDS011;33980;47.436;18.926;2022-09-01T07:26:39;2.03;;;1.08;;
48189;SDS011;33980;47.436;18.926;2022-09-01T07:29:14;1.48;;;1.05;;
48189;SDS011;33980;47.436;18.926;2022-09-01T07:31:44;2.25;;;1.45;;
48189;SDS011;33980;47.436;18.926;2022-09-01T07:34:18;2.05;;;0.77;;
48189;SDS011;33980;47.436;18.926;2022-09-01T07:37:08;3.03;;;1.33;;
48189;SDS011;33980;47.436;18.926;2022-09-01T07:39:58;2.72;;;1.02;;
48189;SDS011;33980;47.436;18.926;2022-09-01T07:42:52;0.82;;;0.80;;
48189;SDS011;33980;47.436;18.926;2022-09-01T07:45:45;1.35;;;1.00;;
48189;SDS011;33980;47.436;18.926;2022-09-01T07:48:25;1.40;;;0.90;;
48189;SDS011;33980;47.436;18.926;2022-09-01T07:51:18;1.00;;;0.90;;
48189;SDS011;33980;47.436;18.926;2022-09-01T07:54:06;2.17;;;1.00;;
48189;SDS011;33980;47.436;18.926;2022-09-01T07:56:35;1.10;;;0.88;;
48189;SDS011;33980;47.436;18.926;2022-09-01T07:59:06;1.45;;;1.00;;
48189;SDS011;33980;47.436;18.926;2022-09-01T08:01:44;1.83;;;1.10;;
48189;SDS011;33980;47.436;18.926;2022-09-01T08:04:14;1.95;;;0.80;;
48189;SDS011;33980;47.436;18.926;2022-09-01T08:06:45;0.80;;;0.80;;
48189;SDS011;33980;47.436;18.926;2022-09-01T08:09:15;1.77;;;1.10;;
48189;SDS011;33980;47.436;18.926;2022-09-01T08:12:03;1.27;;;0.95;;
48189;SDS011;33980;47.436;18.926;2022-09-01T08:14:35;2.37;;;1.08;;
48189;SDS011;33980;47.436;18.926;2022-09-01T08:17:04;1.40;;;0.90;;
48189;SDS011;33980;47.436;18.926;2022-09-01T08:19:54;0.85;;;0.85;;
48189;SDS011;33980;47.436;18.926;2022-09-01T08:22:26;1.20;;;0.90;;
48189;SDS011;33980;47.436;18.926;2022-09-01T08:24:55;1.73;;;0.90;;
48189;SDS011;33980;47.436;18.926;2022-09-01T08:27:24;1.83;;;0.95;;
48189;SDS011;33980;47.436;18.926;2022-09-01T08:29:53;1.30;;;0.77;;
48189;SDS011;33980;47.436;18.926;2022-09-01T08:32:23;1.30;;;1.00;;
48189;SDS011;33980;47.436;18.926;2022-09-01T08:34:52;1.52;;;0.88;;
48189;SDS011;33980;47.436;18.926;2022-09-01T08:37:21;0.60;;;0.60;;
48189;SDS011;33980;47.436;18.926;2022-09-01T08:39:51;0.98;;;0.70;;
48189;SDS011;33980;47.436;18.926;2022-09-01T08:42:24;1.27;;;1.00;;
48189;SDS011;33980;47.436;18.926;2022-09-01T08:45:06;0.75;;;0.65;;
48189;SDS011;33980;47.436;18.926;2022-09-01T08:47:37;1.37;;;0.93;;
48189;SDS011;33980;47.436;18.926;2022-09-01T08:50:26;1.40;;;0.80;;
48189;SDS011;33980;47.436;18.926;2022-09-01T08:52:57;1.50;;;0.90;;
48189;SDS011;33980;47.436;18.926;2022-09-01T08:58:09;1.65;;;0.90;;
48189;SDS011;33980;47.436;18.926;2022-09-01T09:00:41;1.08;;;0.70;;
48189;SDS011;33980;47.436;18.926;2022-09-01T09:03:19;3.80;;;1.27;;
48189;SDS011;33980;47.436;18.926;2022-09-01T09:06:12;3.35;;;0.80;;
48189;SDS011;33980;47.436;18.926;2022-09-01T09:08:55;3.00;;;0.80;;
48189;SDS011;33980;47.436;18.926;2022-09-01T09:11:32;1.20;;;0.80;;
48189;SDS011;33980;47.436;18.926;2022-09-01T09:14:13;2.85;;;0.95;;
48189;SDS011;33980;47.436;18.926;2022-09-01T09:16:46;1.62;;;1.00;;
48189;SDS011;33980;47.436;18.926;2022-09-01T09:19:21;1.00;;;0.68;;
48189;SDS011;33980;47.436;18.926;2022-09-01T09:21:52;0.85;;;0.80;;
48189;SDS011;33980;47.436;18.926;2022-09-01T09:24:23;0.95;;;0.70;;
48189;SDS011;33980;47.436;18.926;2022-09-01T09:27:07;1.50;;;0.98;;
48189;SDS011;33980;47.436;18.926;2022-09-01T09:29:39;1.67;;;0.50;;
48189;SDS011;33980;47.436;18.926;2022-09-01T09:32:11;1.23;;;0.70;;
48189;SDS011;33980;47.436;18.926;2022-09-01T09:35:04;1.20;;;0.73;;
48189;SDS011;33980;47.436;18.926;2022-09-01T09:37:46;1.40;;;1.00;;
48189;SDS011;33980;47.436;18.926;2022-09-01T09:40:15;1.40;;;0.70;;
48189;SDS011;33980;47.436;18.926;2022-09-01T09:45:34;1.42;;;0.68;;
48189;SDS011;33980;47.436;18.926;2022-09-01T09:48:09;2.00;;;0.98;;
48189;SDS011;33980;47.436;18.926;2022-09-01T09:50:55;2.20;;;0.82;;
48189;SDS011;33980;47.436;18.926;2022-09-01T09:53:28;1.80;;;0.95;;
48189;SDS011;33980;47.436;18.926;2022-09-01T09:55:59;1.52;;;1.12;;
48189;SDS011;33980;47.436;18.926;2022-09-01T09:58:34;2.35;;;1.12;;
48189;SDS011;33980;47.436;18.926;2022-09-01T10:01:06;1.48;;;0.90;;
48189;SDS011;33980;47.436;18.926;2022-09-01T10:03:39;2.15;;;0.85;;
48189;SDS011;33980;47.436;18.926;2022-09-01T10:06:10;0.93;;;0.60;;
48189;SDS011;33980;47.436;18.926;2022-09-01T10:08:43;1.33;;;0.80;;
48189;SDS011;33980;47.436;18.926;2022-09-01T10:11:24;1.12;;;0.68;;
48189;SDS011;33980;47.436;18.926;2022-09-01T10:14:05;3.50;;;0.70;;
48189;SDS011;33980;47.436;18.926;2022-09-01T10:16:39;1.75;;;1.10;;
48189;SDS011;33980;47.436;18.926;2022-09-01T10:19:12;1.35;;;0.57;;
48189;SDS011;33980;47.436;18.926;2022-09-01T10:21:46;2.72;;;1.12;;
48189;SDS011;33980;47.436;18.926;2022-09-01T10:24:17;1.00;;;0.90;;
48189;SDS011;33980;47.436;18.926;2022-09-01T10:26:52;0.43;;;0.43;;
48189;SDS011;33980;47.436;18.926;2022-09-01T10:29:26;1.67;;;0.77;;
48189;SDS011;33980;47.436;18.926;2022-09-01T10:32:01;1.65;;;0.85;;
48189;SDS011;33980;47.436;18.926;2022-09-01T10:34:53;1.17;;;0.98;;
48189;SDS011;33980;47.436;18.926;2022-09-01T10:37:25;0.93;;;0.65;;
48189;SDS011;33980;47.436;18.926;2022-09-01T10:40:15;1.30;;;0.80;;
48189;SDS011;33980;47.436;18.926;2022-09-01T10:42:57;1.37;;;0.80;;
48189;SDS011;33980;47.436;18.926;2022-09-01T10:45:45;1.62;;;0.90;;
48189;SDS011;33980;47.436;18.926;2022-09-01T10:48:25;1.37;;;0.70;;
48189;SDS011;33980;47.436;18.926;2022-09-01T10:57:24;1.23;;;0.80;;
48189;SDS011;33980;47.436;18.926;2022-09-01T11:00:12;1.27;;;0.70;;
48189;SDS011;33980;47.436;18.926;2022-09-01T11:06:42;0.68;;;0.50;;
48189;SDS011;33980;47.436;18.926;2022-09-01T11:09:39;2.15;;;0.70;;
48189;SDS011;33980;47.436;18.926;2022-09-01T11:12:12;1.15;;;0.80;;
48189;SDS011;33980;47.436;18.926;2022-09-01T11:15:00;0.70;;;0.55;;
48189;SDS011;33980;47.436;18.926;2022-09-01T11:17:31;1.15;;;0.68;;
48189;SDS011;33980;47.436;18.926;2022-09-01T11:20:03;0.77;;;0.60;;
48189;SDS011;33980;47.436;18.926;2022-09-01T11:22:36;1.95;;;0.88;;
48189;SDS011;33980;47.436;18.926;2022-09-01T11:31:30;1.50;;;0.70;;
48189;SDS011;33980;47.436;18.926;2022-09-01T11:34:09;1.58;;;0.55;;
48189;SDS011;33980;47.436;18.926;2022-09-01T11:36:50;0.70;;;0.45;;
48189;SDS011;33980;47.436;18.926;2022-09-01T11:39:30;2.08;;;1.08;;
48189;SDS011;33980;47.436;18.926;2022-09-01T11:42:11;1.25;;;0.60;;
48189;SDS011;33980;47.436;18.926;2022-09-01T11:44:47;0.70;;;0.50;;
48189;SDS011;33980;47.436;18.926;2022-09-01T11:47:21;1.40;;;0.65;;
48189;SDS011;33980;47.436;18.926;2022-09-01T11:49:54;0.50;;;0.50;;
48189;SDS011;33980;47.436;18.926;2022-09-01T11:52:26;1.27;;;0.73;;
48189;SDS011;33980;47.436;18.926;2022-09-01T11:54:57;1.33;;;0.73;;
48189;SDS011;33980;47.436;18.926;2022-09-01T11:57:28;1.27;;;0.40;;
48189;SDS011;33980;47.436;18.926;2022-09-01T11:59:58;0.55;;;0.50;;
48189;SDS011;33980;47.436;18.926;2022-09-01T12:02:41;1.37;;;0.75;;
48189;SDS011;33980;47.436;18.926;2022-09-01T12:05:22;1.55;;;0.50;;
48189;SDS011;33980;47.436;18.926;2022-09-01T12:07:53;0.40;;;0.40;;
48189;SDS011;33980;47.436;18.926;2022-09-01T12:10:26;1.27;;;0.85;;
48189;SDS011;33980;47.436;18.926;2022-09-01T12:12:59;0.95;;;0.50;;
48189;SDS011;33980;47.436;18.926;2022-09-01T12:15:33;0.32;;;0.32;;
48189;SDS011;33980;47.436;18.926;2022-09-01T12:18:13;1.30;;;0.50;;
48189;SDS011;33980;47.436;18.926;2022-09-01T12:20:46;0.65;;;0.40;;
48189;SDS011;33980;47.436;18.926;2022-09-01T12:23:24;0.82;;;0.50;;
48189;SDS011;33980;47.436;18.926;2022-09-01T12:25:56;1.70;;;0.65;;
48189;SDS011;33980;47.436;18.926;2022-09-01T12:28:29;4.40;;;0.90;;
48189;SDS011;33980;47.436;18.926;2022-09-01T12:31:00;0.70;;;0.40;;
48189;SDS011;33980;47.436;18.926;2022-09-01T12:33:33;1.15;;;0.40;;
48189;SDS011;33980;47.436;18.926;2022-09-01T12:36:13;2.35;;;0.50;;
48189;SDS011;33980;47.436;18.926;2022-09-01T12:38:47;0.95;;;0.60;;
48189;SDS011;33980;47.436;18.926;2022-09-01T12:41:27;0.55;;;0.40;;
48189;SDS011;33980;47.436;18.926;2022-09-01T12:46:58;1.58;;;0.55;;
48189;SDS011;33980;47.436;18.926;2022-09-01T12:49:34;0.93;;;0.50;;
48189;SDS011;33980;47.436;18.926;2022-09-01T12:52:21;0.62;;;0.40;;
48189;SDS011;33980;47.436;18.926;2022-09-01T12:54:53;1.05;;;0.62;;
48189;SDS011;33980;47.436;18.926;2022-09-01T12:57:40;1.25;;;0.60;;
48189;SDS011;33980;47.436;18.926;2022-09-01T13:00:18;1.12;;;0.62;;
48189;SDS011;33980;47.436;18.926;2022-09-01T13:02:48;1.80;;;1.00;;
48189;SDS011;33980;47.436;18.926;2022-09-01T13:05:20;1.23;;;0.47;;
48189;SDS011;33980;47.436;18.926;2022-09-01T13:08:00;1.02;;;0.52;;
48189;SDS011;33980;47.436;18.926;2022-09-01T13:10:30;0.80;;;0.50;;
48189;SDS011;33980;47.436;18.926;2022-09-01T13:13:06;0.35;;;0.35;;
48189;SDS011;33980;47.436;18.926;2022-09-01T13:18:04;1.37;;;0.60;;
48189;SDS011;33980;47.436;18.926;2022-09-01T13:20:33;1.50;;;0.50;;
48189;SDS011;33980;47.436;18.926;2022-09-01T13:23:02;1.48;;;0.45;;
48189;SDS011;33980;47.436;18.926;2022-09-01T13:25:31;0.30;;;0.30;;
48189;SDS011;33980;47.436;18.926;2022-09-01T13:28:00;1.08;;;0.50;;
48189;SDS011;33980;47.436;18.926;2022-09-01T13:30:31;0.52;;;0.40;;
48189;SDS011;33980;47.436;18.926;2022-09-01T13:33:00;0.90;;;0.45;;
48189;SDS011;33980;47.436;18.926;2022-09-01T13:35:46;0.50;;;0.30;;
48189;SDS011;33980;47.436;18.926;2022-09-01T13:38:16;0.37;;;0.37;;
48189;SDS011;33980;47.436;18.926;2022-09-01T13:40:45;1.30;;;0.60;;
48189;SDS011;33980;47.436;18.926;2022-09-01T13:43:16;0.20;;;0.20;;
48189;SDS011;33980;47.436;18.926;2022-09-01T13:45:48;0.30;;;0.30;;
48189;SDS011;33980;47.436;18.926;2022-09-01T13:48:18;0.80;;;0.50;;
48189;SDS011;33980;47.436;18.926;2022-09-01T13:50:48;0.65;;;0.40;;
48189;SDS011;33980;47.436;18.926;2022-09-01T13:53:38;0.68;;;0.40;;
48189;SDS011;33980;47.436;18.926;2022-09-01T13:56:07;0.98;;;0.47;;
48189;SDS011;33980;47.436;18.926;2022-09-01T13:58:36;1.35;;;0.57;;
48189;SDS011;33980;47.436;18.926;2022-09-01T14:01:07;1.17;;;0.50;;
48189;SDS011;33980;47.436;18.926;2022-09-01T14:03:36;1.08;;;0.50;;
48189;SDS011;33980;47.436;18.926;2022-09-01T14:06:04;1.37;;;0.47;;
48189;SDS011;33980;47.436;18.926;2022-09-01T14:08:33;1.60;;;0.65;;
48189;SDS011;33980;47.436;18.926;2022-09-01T14:11:02;1.00;;;0.50;;
48189;SDS011;33980;47.436;18.926;2022-09-01T14:13:31;0.95;;;0.43;;
48189;SDS011;33980;47.436;18.926;2022-09-01T14:16:01;0.20;;;0.20;;
48189;SDS011;33980;47.436;18.926;2022-09-01T14:18:39;0.93;;;0.50;;
48189;SDS011;33980;47.436;18.926;2022-09-01T14:21:12;0.65;;;0.40;;
48189;SDS011;33980;47.436;18.926;2022-09-01T14:23:42;0.93;;;0.30;;
48189;SDS011;33980;47.436;18.926;2022-09-01T14:26:12;0.73;;;0.40;;
48189;SDS011;33980;47.436;18.926;2022-09-01T14:28:42;0.37;;;0.37;;
48189;SDS011;33980;47.436;18.926;2022-09-01T14:31:16;0.30;;;0.30;;
48189;SDS011;33980;47.436;18.926;2022-09-01T14:33:45;1.15;;;0.50;;
48189;SDS011;33980;47.436;18.926;2022-09-01T14:36:16;1.12;;;0.70;;
48189;SDS011;33980;47.436;18.926;2022-09-01T14:38:46;1.98;;;0.60;;
48189;SDS011;33980;47.436;18.926;2022-09-01T14:41:16;1.40;;;0.50;;
48189;SDS011;33980;47.436;18.926;2022-09-01T14:43:48;0.70;;;0.30;;
48189;SDS011;33980;47.436;18.926;2022-09-01T14:46:18;0.60;;;0.37;;
48189;SDS011;33980;47.436;18.926;2022-09-01T14:48:47;0.60;;;0.40;;
48189;SDS011;33980;47.436;18.926;2022-09-01T14:51:18;0.40;;;0.40;;
48189;SDS011;33980;47.436;18.926;2022-09-01T14:53:50;1.00;;;0.40;;
48189;SDS011;33980;47.436;18.926;2022-09-01T14:56:20;1.10;;;0.52;;
48189;SDS011;33980;47.436;18.926;2022-09-01T14:58:49;0.50;;;0.40;;
48189;SDS011;33980;47.436;18.926;2022-09-01T15:01:19;0.65;;;0.40;;
48189;SDS011;33980;47.436;18.926;2022-09-01T15:04:01;0.55;;;0.30;;
48189;SDS011;33980;47.436;18.926;2022-09-01T15:06:31;0.40;;;0.40;;
48189;SDS011;33980;47.436;18.926;2022-09-01T15:09:02;0.32;;;0.30;;
48189;SDS011;33980;47.436;18.926;2022-09-01T15:11:31;0.60;;;0.35;;
48189;SDS011;33980;47.436;18.926;2022-09-01T15:14:12;1.27;;;0.40;;
48189;SDS011;33980;47.436;18.926;2022-09-01T15:16:42;1.33;;;0.43;;
48189;SDS011;33980;47.436;18.926;2022-09-01T15:19:13;0.60;;;0.50;;
48189;SDS011;33980;47.436;18.926;2022-09-01T15:21:42;0.47;;;0.40;;
48189;SDS011;33980;47.436;18.926;2022-09-01T15:24:12;1.25;;;0.30;;
48189;SDS011;33980;47.436;18.926;2022-09-01T15:26:41;0.98;;;0.47;;
48189;SDS011;33980;47.436;18.926;2022-09-01T15:29:10;1.45;;;0.60;;
48189;SDS011;33980;47.436;18.926;2022-09-01T15:31:40;2.05;;;0.60;;
48189;SDS011;33980;47.436;18.926;2022-09-01T15:34:11;1.02;;;0.40;;
48189;SDS011;33980;47.436;18.926;2022-09-01T15:36:40;0.55;;;0.40;;
48189;SDS011;33980;47.436;18.926;2022-09-01T15:39:11;0.75;;;0.37;;
48189;SDS011;33980;47.436;18.926;2022-09-01T15:41:42;0.90;;;0.50;;
48189;SDS011;33980;47.436;18.926;2022-09-01T15:44:11;0.62;;;0.50;;
48189;SDS011;33980;47.436;18.926;2022-09-01T15:46:41;0.52;;;0.45;;
48189;SDS011;33980;47.436;18.926;2022-09-01T15:49:12;0.55;;;0.35;;